sensor_id;sensor_type;location;lat;lon;timestamp;pressure;altitude;pressure_sealevel;temperature;humidity
46638;BME280;32365;46.938;7.390;2022-12-18T08:05:50;96362.47;;;-1.82;90.48
46638;BME280;32365;46.938;7.390;2022-12-18T08:08:16;96365.66;;;-1.80;90.69
46638;BME280;32365;46.938;7.390;2022-12-18T08:10:43;96371.13;;;-1.84;91.12
46638;BME280;32365;46.938;7.390;2022-12-18T08:13:09;96374.41;;;-1.73;90.98
46638;BME280;32365;46.938;7.390;2022-12-18T08:15:36;96373.16;;;-1.57;89.79
46638;BME280;32365;46.938;7.390;2022-12-18T08:18:02;96369.94;;;-1.59;89.87
46638;BME280;32365;46.938;7.390;2022-12-18T08:20:28;96374.69;;;-1.45;88.05
46638;BME280;32365;46.938;7.390;2022-12-18T08:22:56;96379.03;;;-1.57;89.23
46638;BME280;32365;46.938;7.390;2022-12-18T08:25:23;96378.78;;;-1.53;89.21
46638;BME280;32365;46.938;7.390;2022-12-18T08:27:49;96379.34;;;-1.71;88.67
46638;BME280;32365;46.938;7.390;2022-12-18T08:30:16;96373.31;;;-1.49;88.32
46638;BME280;32365;46.938;7.390;2022-12-18T08:32:42;96367.41;;;-1.49;89.31
46638;BME280;32365;46.938;7.390;2022-12-18T08:35:09;96369.50;;;-1.64;88.85
46638;BME280;32365;46.938;7.390;2022-12-18T08:37:37;96368.34;;;-1.81;89.08
46638;BME280;32365;46.938;7.390;2022-12-18T08:40:05;96370.94;;;-1.72;89.38
46638;BME280;32365;46.938;7.390;2022-12-18T08:42:32;96366.84;;;-1.63;90.18
46638;BME280;32365;46.938;7.390;2022-12-18T08:45:16;96371.88;;;-1.73;89.99
46638;BME280;32365;46.938;7.390;2022-12-18T08:47:42;96371.56;;;-1.48;89.14
46638;BME280;32365;46.938;7.390;2022-12-18T08:50:09;96369.25;;;-1.61;88.73
46638;BME280;32365;46.938;7.390;2022-12-18T08:52:36;96368.22;;;-1.49;88.96
46638;BME280;32365;46.938;7.390;2022-12-18T08:55:02;96363.28;;;-1.50;88.75
46638;BME280;32365;46.938;7.390;2022-12-18T08:57:30;96364.72;;;-1.58;89.34
46638;BME280;32365;46.938;7.390;2022-12-18T08:59:57;96357.13;;;-1.48;89.20
46638;BME280;32365;46.938;7.390;2022-12-18T09:02:23;96358.31;;;-1.21;87.02
46638;BME280;32365;46.938;7.390;2022-12-18T09:04:50;96368.84;;;-1.26;87.99
46638;BME280;32365;46.938;7.390;2022-12-18T09:07:16;96369.56;;;-1.14;86.60
46638;BME280;32365;46.938;7.390;2022-12-18T09:09:43;96374.53;;;-1.02;86.76
46638;BME280;32365;46.938;7.390;2022-12-18T09:12:09;96368.63;;;-1.13;86.51
46638;BME280;32365;46.938;7.390;2022-12-18T09:14:37;96364.38;;;-1.43;88.09
46638;BME280;32365;46.938;7.390;2022-12-18T09:17:03;96366.72;;;-1.20;87.47
46638;BME280;32365;46.938;7.390;2022-12-18T09:19:30;96365.72;;;-0.98;86.29
46638;BME280;32365;46.938;7.390;2022-12-18T09:21:56;96371.44;;;-1.06;86.53
46638;BME280;32365;46.938;7.390;2022-12-18T09:24:22;96363.47;;;-0.91;85.48
46638;BME280;32365;46.938;7.390;2022-12-18T09:26:52;96361.31;;;-0.86;85.58
46638;BME280;32365;46.938;7.390;2022-12-18T09:29:18;96356.38;;;-0.68;85.72
46638;BME280;32365;46.938;7.390;2022-12-18T09:31:46;96350.22;;;-0.66;84.20
46638;BME280;32365;46.938;7.390;2022-12-18T09:34:12;96364.28;;;-0.32;82.40
46638;BME280;32365;46.938;7.390;2022-12-18T09:36:39;96362.56;;;-0.32;82.60
46638;BME280;32365;46.938;7.390;2022-12-18T09:39:05;96375.28;;;-0.41;83.05
46638;BME280;32365;46.938;7.390;2022-12-18T09:41:39;96367.63;;;-0.12;82.51
46638;BME280;32365;46.938;7.390;2022-12-18T09:44:10;96371.66;;;-0.29;82.22
46638;BME280;32365;46.938;7.390;2022-12-18T09:46:39;96368.03;;;-0.17;82.44
46638;BME280;32365;46.938;7.390;2022-12-18T09:49:11;96375.94;;;-0.39;83.38
46638;BME280;32365;46.938;7.390;2022-12-18T09:51:39;96371.00;;;-0.21;81.15
46638;BME280;32365;46.938;7.390;2022-12-18T09:54:11;96372.03;;;-0.14;81.30
46638;BME280;32365;46.938;7.390;2022-12-18T09:56:40;96371.09;;;-0.03;81.58
46638;BME280;32365;46.938;7.390;2022-12-18T09:59:13;96375.06;;;0.19;80.19
46638;BME280;32365;46.938;7.390;2022-12-18T10:01:41;96383.28;;;0.13;79.85
46638;BME280;32365;46.938;7.390;2022-12-18T10:04:09;96383.94;;;-0.05;81.04
46638;BME280;32365;46.938;7.390;2022-12-18T10:06:37;96388.13;;;-0.13;81.01
46638;BME280;32365;46.938;7.390;2022-12-18T10:09:06;96392.41;;;-0.14;81.05
46638;BME280;32365;46.938;7.390;2022-12-18T10:11:39;96391.47;;;-0.13;81.21
46638;BME280;32365;46.938;7.390;2022-12-18T10:14:10;96386.22;;;-0.02;81.13
46638;BME280;32365;46.938;7.390;2022-12-18T10:16:42;96374.47;;;-0.12;81.11
46638;BME280;32365;46.938;7.390;2022-12-18T10:19:20;96377.09;;;0.15;80.79
46638;BME280;32365;46.938;7.390;2022-12-18T10:21:51;96376.50;;;0.41;80.10
46638;BME280;32365;46.938;7.390;2022-12-18T10:24:23;96369.88;;;0.49;78.74
46638;BME280;32365;46.938;7.390;2022-12-18T10:26:53;96359.59;;;0.40;78.72
46638;BME280;32365;46.938;7.390;2022-12-18T10:29:24;96363.59;;;0.43;79.04
46638;BME280;32365;46.938;7.390;2022-12-18T10:31:51;96360.75;;;0.56;77.88
46638;BME280;32365;46.938;7.390;2022-12-18T10:34:18;96362.66;;;0.44;78.57
46638;BME280;32365;46.938;7.390;2022-12-18T10:36:45;96362.72;;;0.62;77.83
46638;BME280;32365;46.938;7.390;2022-12-18T10:39:14;96366.28;;;0.51;78.09
46638;BME280;32365;46.938;7.390;2022-12-18T10:41:41;96368.34;;;0.28;78.88
46638;BME280;32365;46.938;7.390;2022-12-18T10:44:11;96354.09;;;0.45;77.90
46638;BME280;32365;46.938;7.390;2022-12-18T10:46:37;96353.56;;;0.41;77.94
46638;BME280;32365;46.938;7.390;2022-12-18T10:49:04;96343.22;;;0.43;77.71
46638;BME280;32365;46.938;7.390;2022-12-18T10:51:32;96353.88;;;0.66;77.11
46638;BME280;32365;46.938;7.390;2022-12-18T10:54:00;96354.13;;;1.01;74.41
46638;BME280;32365;46.938;7.390;2022-12-18T10:56:27;96361.00;;;0.63;76.40
46638;BME280;32365;46.938;7.390;2022-12-18T10:58:55;96366.50;;;0.86;76.69
46638;BME280;32365;46.938;7.390;2022-12-18T11:01:22;96367.34;;;1.32;74.81
46638;BME280;32365;46.938;7.390;2022-12-18T11:03:58;96364.56;;;1.44;73.92
46638;BME280;32365;46.938;7.390;2022-12-18T11:06:25;96357.66;;;1.36;72.96
46638;BME280;32365;46.938;7.390;2022-12-18T11:08:58;96360.59;;;0.95;75.13
46638;BME280;32365;46.938;7.390;2022-12-18T11:11:25;96364.78;;;0.86;75.10
46638;BME280;32365;46.938;7.390;2022-12-18T11:13:58;96360.03;;;0.91;75.35
46638;BME280;32365;46.938;7.390;2022-12-18T11:16:26;96362.50;;;0.83;75.00
46638;BME280;32365;46.938;7.390;2022-12-18T11:18:53;96362.78;;;0.80;76.98
46638;BME280;32365;46.938;7.390;2022-12-18T11:21:19;96359.53;;;0.88;75.21
46638;BME280;32365;46.938;7.390;2022-12-18T11:23:46;96348.63;;;0.96;74.47
46638;BME280;32365;46.938;7.390;2022-12-18T11:26:15;96358.22;;;0.56;76.80
46638;BME280;32365;46.938;7.390;2022-12-18T11:28:43;96357.13;;;0.86;76.10
46638;BME280;32365;46.938;7.390;2022-12-18T11:31:17;96353.00;;;1.03;74.93
46638;BME280;32365;46.938;7.390;2022-12-18T11:33:45;96350.84;;;1.27;73.78
46638;BME280;32365;46.938;7.390;2022-12-18T11:36:13;96347.34;;;1.64;73.40
46638;BME280;32365;46.938;7.390;2022-12-18T11:38:40;96351.81;;;2.06;71.11
46638;BME280;32365;46.938;7.390;2022-12-18T11:41:20;96348.13;;;1.82;70.67
46638;BME280;32365;46.938;7.390;2022-12-18T11:43:50;96341.66;;;1.70;70.94
46638;BME280;32365;46.938;7.390;2022-12-18T11:46:23;96339.34;;;1.22;73.35
46638;BME280;32365;46.938;7.390;2022-12-18T11:48:52;96334.66;;;1.72;70.98
46638;BME280;32365;46.938;7.390;2022-12-18T11:51:21;96330.91;;;1.84;70.81
46638;BME280;32365;46.938;7.390;2022-12-18T11:53:50;96325.63;;;1.42;73.41
46638;BME280;32365;46.938;7.390;2022-12-18T11:56:24;96327.31;;;1.51;73.24
46638;BME280;32365;46.938;7.390;2022-12-18T11:58:57;96323.44;;;1.29;73.99
46638;BME280;32365;46.938;7.390;2022-12-18T12:01:32;96322.91;;;1.79;71.22
46638;BME280;32365;46.938;7.390;2022-12-18T12:04:19;96315.25;;;2.40;70.15
46638;BME280;32365;46.938;7.390;2022-12-18T12:06:49;96312.25;;;2.88;66.81
46638;BME280;32365;46.938;7.390;2022-12-18T12:09:20;96297.97;;;2.77;67.46
46638;BME280;32365;46.938;7.390;2022-12-18T12:11:53;96291.59;;;2.81;68.80
46638;BME280;32365;46.938;7.390;2022-12-18T12:14:29;96290.41;;;3.10;66.49
46638;BME280;32365;46.938;7.390;2022-12-18T12:17:02;96294.44;;;2.27;69.87
46638;BME280;32365;46.938;7.390;2022-12-18T12:19:36;96290.34;;;2.34;69.55
46638;BME280;32365;46.938;7.390;2022-12-18T12:22:08;96289.22;;;2.37;69.73
46638;BME280;32365;46.938;7.390;2022-12-18T12:24:39;96280.03;;;2.18;69.57
46638;BME280;32365;46.938;7.390;2022-12-18T12:27:15;96290.72;;;2.13;71.15
46638;BME280;32365;46.938;7.390;2022-12-18T12:29:49;96267.28;;;1.91;71.52
46638;BME280;32365;46.938;7.390;2022-12-18T12:32:22;96272.13;;;1.76;71.09
46638;BME280;32365;46.938;7.390;2022-12-18T12:34:55;96265.47;;;1.83;71.58
46638;BME280;32365;46.938;7.390;2022-12-18T12:37:30;96273.75;;;1.59;72.26
46638;BME280;32365;46.938;7.390;2022-12-18T12:40:00;96282.06;;;1.61;72.73
46638;BME280;32365;46.938;7.390;2022-12-18T12:42:29;96294.69;;;1.63;72.19
46638;BME280;32365;46.938;7.390;2022-12-18T12:45:16;96277.81;;;0.71;75.81
46638;BME280;32365;46.938;7.390;2022-12-18T12:47:45;96282.72;;;1.37;73.58
46638;BME280;32365;46.938;7.390;2022-12-18T12:50:13;96286.84;;;1.82;72.21
46638;BME280;32365;46.938;7.390;2022-12-18T12:52:42;96289.56;;;1.63;71.90
46638;BME280;32365;46.938;7.390;2022-12-18T12:55:12;96295.09;;;1.76;71.24
46638;BME280;32365;46.938;7.390;2022-12-18T12:57:40;96294.38;;;1.03;76.16
46638;BME280;32365;46.938;7.390;2022-12-18T13:00:10;96284.50;;;1.08;76.69
46638;BME280;32365;46.938;7.390;2022-12-18T13:02:42;96275.63;;;0.95;76.99
46638;BME280;32365;46.938;7.390;2022-12-18T13:05:14;96277.81;;;0.89;76.98
46638;BME280;32365;46.938;7.390;2022-12-18T13:07:46;96275.28;;;1.07;75.56
46638;BME280;32365;46.938;7.390;2022-12-18T13:13:04;96265.94;;;1.34;73.41
46638;BME280;32365;46.938;7.390;2022-12-18T13:15:34;96265.63;;;1.37;75.13
46638;BME280;32365;46.938;7.390;2022-12-18T13:18:04;96266.31;;;1.21;75.37
46638;BME280;32365;46.938;7.390;2022-12-18T13:20:35;96266.88;;;1.15;75.66
46638;BME280;32365;46.938;7.390;2022-12-18T13:23:02;96272.84;;;1.42;72.87
46638;BME280;32365;46.938;7.390;2022-12-18T13:25:45;96269.81;;;1.02;75.83
46638;BME280;32365;46.938;7.390;2022-12-18T13:28:12;96269.59;;;0.96;75.54
46638;BME280;32365;46.938;7.390;2022-12-18T13:30:43;96264.31;;;0.79;76.88
46638;BME280;32365;46.938;7.390;2022-12-18T13:36:02;96276.13;;;0.80;76.56
46638;BME280;32365;46.938;7.390;2022-12-18T13:38:32;96271.25;;;1.23;74.85
46638;BME280;32365;46.938;7.390;2022-12-18T13:40:59;96264.88;;;1.19;75.22
46638;BME280;32365;46.938;7.390;2022-12-18T13:43:27;96262.53;;;1.07;75.43
46638;BME280;32365;46.938;7.390;2022-12-18T13:46:17;96266.34;;;0.75;75.76
46638;BME280;32365;46.938;7.390;2022-12-18T13:48:49;96259.16;;;0.71;76.88
46638;BME280;32365;46.938;7.390;2022-12-18T13:51:17;96257.19;;;0.37;79.61
46638;BME280;32365;46.938;7.390;2022-12-18T13:53:46;96256.16;;;0.29;79.87
46638;BME280;32365;46.938;7.390;2022-12-18T13:56:15;96261.25;;;0.29;81.42
46638;BME280;32365;46.938;7.390;2022-12-18T13:58:41;96253.75;;;0.18;80.38
46638;BME280;32365;46.938;7.390;2022-12-18T14:01:15;96247.94;;;0.36;80.19
46638;BME280;32365;46.938;7.390;2022-12-18T14:03:47;96254.47;;;0.38;79.97
46638;BME280;32365;46.938;7.390;2022-12-18T14:06:13;96254.59;;;0.19;79.17
46638;BME280;32365;46.938;7.390;2022-12-18T14:08:41;96249.59;;;-0.11;81.16
46638;BME280;32365;46.938;7.390;2022-12-18T14:11:16;96253.19;;;-0.04;81.93
46638;BME280;32365;46.938;7.390;2022-12-18T14:13:44;96245.63;;;-0.23;82.81
46638;BME280;32365;46.938;7.390;2022-12-18T14:16:12;96248.56;;;-0.28;83.15
46638;BME280;32365;46.938;7.390;2022-12-18T14:18:42;96261.88;;;-0.44;83.57
46638;BME280;32365;46.938;7.390;2022-12-18T14:21:16;96260.00;;;-0.52;84.57
46638;BME280;32365;46.938;7.390;2022-12-18T14:23:45;96260.13;;;-0.53;84.56
46638;BME280;32365;46.938;7.390;2022-12-18T14:26:22;96250.91;;;-0.64;84.90
46638;BME280;32365;46.938;7.390;2022-12-18T14:28:48;96255.72;;;-0.51;83.42
46638;BME280;32365;46.938;7.390;2022-12-18T14:31:18;96254.78;;;-0.89;85.19
46638;BME280;32365;46.938;7.390;2022-12-18T14:33:45;96259.88;;;-0.89;85.26
46638;BME280;32365;46.938;7.390;2022-12-18T14:36:13;96255.75;;;-1.00;85.74
46638;BME280;32365;46.938;7.390;2022-12-18T14:38:41;96258.81;;;-0.87;85.84
46638;BME280;32365;46.938;7.390;2022-12-18T14:41:10;96254.66;;;-0.98;86.06
46638;BME280;32365;46.938;7.390;2022-12-18T14:43:38;96257.47;;;-1.01;85.87
46638;BME280;32365;46.938;7.390;2022-12-18T14:46:05;96258.28;;;-1.10;86.03
46638;BME280;32365;46.938;7.390;2022-12-18T14:48:36;96255.94;;;-1.43;87.47
46638;BME280;32365;46.938;7.390;2022-12-18T14:51:04;96259.97;;;-1.40;87.52
46638;BME280;32365;46.938;7.390;2022-12-18T14:53:35;96254.78;;;-1.29;87.69
46638;BME280;32365;46.938;7.390;2022-12-18T14:56:02;96255.84;;;-1.41;88.29
46638;BME280;32365;46.938;7.390;2022-12-18T14:58:30;96252.47;;;-1.51;88.89
46638;BME280;32365;46.938;7.390;2022-12-18T15:00:57;96248.69;;;-1.67;89.07
46638;BME280;32365;46.938;7.390;2022-12-18T15:03:23;96247.75;;;-1.66;90.14
46638;BME280;32365;46.938;7.390;2022-12-18T15:05:49;96257.53;;;-1.61;90.47
46638;BME280;32365;46.938;7.390;2022-12-18T15:08:27;96260.56;;;-1.67;89.45
46638;BME280;32365;46.938;7.390;2022-12-18T15:10:54;96258.16;;;-1.69;89.27
46638;BME280;32365;46.938;7.390;2022-12-18T15:13:22;96263.66;;;-1.64;90.07
46638;BME280;32365;46.938;7.390;2022-12-18T15:15:51;96263.41;;;-1.51;89.29
46638;BME280;32365;46.938;7.390;2022-12-18T15:18:18;96273.63;;;-1.72;89.70
46638;BME280;32365;46.938;7.390;2022-12-18T15:20:46;96273.38;;;-1.69;90.29
46638;BME280;32365;46.938;7.390;2022-12-18T15:23:14;96268.75;;;-1.64;90.36
46638;BME280;32365;46.938;7.390;2022-12-18T15:25:41;96276.31;;;-1.74;90.69
46638;BME280;32365;46.938;7.390;2022-12-18T15:28:15;96264.16;;;-1.70;90.60
46638;BME280;32365;46.938;7.390;2022-12-18T15:33:36;96260.69;;;-2.10;92.03
46638;BME280;32365;46.938;7.390;2022-12-18T15:36:05;96262.91;;;-2.17;92.66
46638;BME280;32365;46.938;7.390;2022-12-18T15:38:34;96254.13;;;-2.12;92.80
46638;BME280;32365;46.938;7.390;2022-12-18T15:41:00;96253.63;;;-2.27;93.49
46638;BME280;32365;46.938;7.390;2022-12-18T15:43:27;96268.97;;;-2.29;93.89
46638;BME280;32365;46.938;7.390;2022-12-18T15:45:59;96272.63;;;-2.22;94.80
46638;BME280;32365;46.938;7.390;2022-12-18T15:48:26;96285.44;;;-2.23;94.42
46638;BME280;32365;46.938;7.390;2022-12-18T15:50:54;96287.25;;;-2.35;94.13
46638;BME280;32365;46.938;7.390;2022-12-18T15:53:22;96288.41;;;-2.39;94.73
46638;BME280;32365;46.938;7.390;2022-12-18T15:55:49;96277.72;;;-2.43;95.30
46638;BME280;32365;46.938;7.390;2022-12-18T15:58:32;96272.81;;;-2.56;94.28
46638;BME280;32365;46.938;7.390;2022-12-18T16:00:59;96277.72;;;-2.64;95.80
46638;BME280;32365;46.938;7.390;2022-12-18T16:03:26;96278.50;;;-2.64;96.41
46638;BME280;32365;46.938;7.390;2022-12-18T16:05:54;96280.00;;;-2.61;95.55
46638;BME280;32365;46.938;7.390;2022-12-18T16:08:20;96280.56;;;-2.57;96.07
46638;BME280;32365;46.938;7.390;2022-12-18T16:10:46;96284.03;;;-2.37;95.48
46638;BME280;32365;46.938;7.390;2022-12-18T16:13:13;96274.44;;;-2.34;95.05
46638;BME280;32365;46.938;7.390;2022-12-18T16:15:41;96271.34;;;-2.37;95.63
46638;BME280;32365;46.938;7.390;2022-12-18T16:18:08;96272.97;;;-2.36;95.71
46638;BME280;32365;46.938;7.390;2022-12-18T16:20:34;96271.38;;;-2.27;95.27
46638;BME280;32365;46.938;7.390;2022-12-18T16:23:02;96269.13;;;-2.30;95.08
46638;BME280;32365;46.938;7.390;2022-12-18T16:25:28;96276.41;;;-2.37;95.70
46638;BME280;32365;46.938;7.390;2022-12-18T16:27:55;96271.75;;;-2.32;95.84
46638;BME280;32365;46.938;7.390;2022-12-18T16:30:22;96273.63;;;-2.34;95.51
46638;BME280;32365;46.938;7.390;2022-12-18T16:32:50;96272.50;;;-2.41;95.92
46638;BME280;32365;46.938;7.390;2022-12-18T16:35:16;96280.69;;;-2.38;96.15
46638;BME280;32365;46.938;7.390;2022-12-18T16:37:43;96284.28;;;-2.40;96.04
46638;BME280;32365;46.938;7.390;2022-12-18T16:40:13;96286.19;;;-2.33;95.90
46638;BME280;32365;46.938;7.390;2022-12-18T16:42:40;96281.34;;;-2.36;96.16
46638;BME280;32365;46.938;7.390;2022-12-18T16:45:07;96280.69;;;-2.38;95.91
46638;BME280;32365;46.938;7.390;2022-12-18T16:47:35;96280.28;;;-2.33;96.32
46638;BME280;32365;46.938;7.390;2022-12-18T16:50:01;96267.44;;;-2.20;96.29
46638;BME280;32365;46.938;7.390;2022-12-18T16:52:28;96263.47;;;-2.13;95.80
46638;BME280;32365;46.938;7.390;2022-12-18T16:54:54;96258.00;;;-2.08;95.47
46638;BME280;32365;46.938;7.390;2022-12-18T16:57:22;96255.59;;;-2.10;95.80
46638;BME280;32365;46.938;7.390;2022-12-18T16:59:49;96261.16;;;-2.16;95.67
46638;BME280;32365;46.938;7.390;2022-12-18T17:02:16;96259.28;;;-2.24;96.54
46638;BME280;32365;46.938;7.390;2022-12-18T17:04:43;96269.78;;;-2.28;95.72
46638;BME280;32365;46.938;7.390;2022-12-18T17:07:09;96276.84;;;-2.32;96.52
46638;BME280;32365;46.938;7.390;2022-12-18T17:09:36;96280.44;;;-2.35;95.81
46638;BME280;32365;46.938;7.390;2022-12-18T17:12:03;96276.84;;;-2.32;96.07
46638;BME280;32365;46.938;7.390;2022-12-18T17:14:31;96267.25;;;-2.28;95.78
46638;BME280;32365;46.938;7.390;2022-12-18T17:16:58;96271.59;;;-2.19;95.86
46638;BME280;32365;46.938;7.390;2022-12-18T17:19:25;96274.22;;;-2.21;96.00
46638;BME280;32365;46.938;7.390;2022-12-18T17:21:51;96272.31;;;-2.28;95.46
46638;BME280;32365;46.938;7.390;2022-12-18T17:24:18;96272.69;;;-2.33;96.40
46638;BME280;32365;46.938;7.390;2022-12-18T17:26:45;96275.16;;;-2.22;96.17
46638;BME280;32365;46.938;7.390;2022-12-18T17:29:12;96277.03;;;-2.24;96.13
46638;BME280;32365;46.938;7.390;2022-12-18T17:31:40;96276.53;;;-2.18;96.10
46638;BME280;32365;46.938;7.390;2022-12-18T17:34:08;96282.09;;;-2.24;96.01
46638;BME280;32365;46.938;7.390;2022-12-18T17:36:34;96279.59;;;-2.14;95.83
46638;BME280;32365;46.938;7.390;2022-12-18T17:39:02;96280.66;;;-2.17;96.10
46638;BME280;32365;46.938;7.390;2022-12-18T17:41:29;96276.97;;;-2.12;95.70
46638;BME280;32365;46.938;7.390;2022-12-18T17:43:56;96272.69;;;-2.12;95.95
46638;BME280;32365;46.938;7.390;2022-12-18T17:46:23;96272.81;;;-2.13;95.39
46638;BME280;32365;46.938;7.390;2022-12-18T17:48:51;96275.50;;;-2.05;95.05
46638;BME280;32365;46.938;7.390;2022-12-18T17:51:17;96271.63;;;-2.09;94.27
46638;BME280;32365;46.938;7.390;2022-12-18T17:53:43;96263.47;;;-2.13;94.83
46638;BME280;32365;46.938;7.390;2022-12-18T17:56:11;96261.75;;;-2.03;95.01
46638;BME280;32365;46.938;7.390;2022-12-18T17:58:38;96262.81;;;-2.05;95.00
46638;BME280;32365;46.938;7.390;2022-12-18T18:01:04;96255.44;;;-2.18;95.94
46638;BME280;32365;46.938;7.390;2022-12-18T18:03:31;96254.44;;;-2.06;96.15
46638;BME280;32365;46.938;7.390;2022-12-18T18:06:00;96266.47;;;-1.98;95.86
46638;BME280;32365;46.938;7.390;2022-12-18T18:08:27;96267.56;;;-1.91;95.44
46638;BME280;32365;46.938;7.390;2022-12-18T18:10:54;96274.88;;;-1.97;95.68
46638;BME280;32365;46.938;7.390;2022-12-18T18:13:40;96264.66;;;-2.17;95.96
46638;BME280;32365;46.938;7.390;2022-12-18T18:16:24;96271.81;;;-2.22;96.82
46638;BME280;32365;46.938;7.390;2022-12-18T18:18:51;96259.63;;;-2.28;96.90
46638;BME280;32365;46.938;7.390;2022-12-18T18:21:18;96280.44;;;-2.35;97.00
46638;BME280;32365;46.938;7.390;2022-12-18T18:23:45;96265.28;;;-2.46;97.22
46638;BME280;32365;46.938;7.390;2022-12-18T18:26:11;96272.22;;;-2.48;98.05
46638;BME280;32365;46.938;7.390;2022-12-18T18:28:38;96273.50;;;-2.54;98.12
46638;BME280;32365;46.938;7.390;2022-12-18T18:31:04;96266.28;;;-2.58;98.48
46638;BME280;32365;46.938;7.390;2022-12-18T18:33:31;96273.19;;;-2.60;98.92
46638;BME280;32365;46.938;7.390;2022-12-18T18:35:58;96276.09;;;-2.65;98.79
46638;BME280;32365;46.938;7.390;2022-12-18T18:38:25;96286.94;;;-2.63;98.65
46638;BME280;32365;46.938;7.390;2022-12-18T18:40:56;96276.59;;;-2.71;99.12
46638;BME280;32365;46.938;7.390;2022-12-18T18:43:23;96278.56;;;-2.75;100.00
46638;BME280;32365;46.938;7.390;2022-12-18T18:45:53;96279.94;;;-2.71;100.00
46638;BME280;32365;46.938;7.390;2022-12-18T18:48:19;96276.41;;;-2.58;100.00
46638;BME280;32365;46.938;7.390;2022-12-18T18:50:54;96285.50;;;-2.56;99.66
46638;BME280;32365;46.938;7.390;2022-12-18T18:53:20;96279.31;;;-2.63;99.60
46638;BME280;32365;46.938;7.390;2022-12-18T18:55:48;96271.91;;;-2.55;99.79
46638;BME280;32365;46.938;7.390;2022-12-18T18:58:14;96277.47;;;-2.61;99.97
46638;BME280;32365;46.938;7.390;2022-12-18T19:00:41;96279.09;;;-2.60;99.98
46638;BME280;32365;46.938;7.390;2022-12-18T19:03:07;96273.31;;;-2.62;99.91
46638;BME280;32365;46.938;7.390;2022-12-18T19:05:33;96270.78;;;-2.62;99.86
46638;BME280;32365;46.938;7.390;2022-12-18T19:08:00;96271.78;;;-2.53;100.00
46638;BME280;32365;46.938;7.390;2022-12-18T19:10:26;96266.13;;;-2.57;99.99
46638;BME280;32365;46.938;7.390;2022-12-18T19:12:54;96258.22;;;-2.64;100.00
46638;BME280;32365;46.938;7.390;2022-12-18T19:15:38;96258.66;;;-2.58;100.00
46638;BME280;32365;46.938;7.390;2022-12-18T19:18:04;96266.69;;;-2.32;100.00
46638;BME280;32365;46.938;7.390;2022-12-18T19:20:31;96272.22;;;-2.27;99.49
46638;BME280;32365;46.938;7.390;2022-12-18T19:22:57;96269.53;;;-2.25;99.29
46638;BME280;32365;46.938;7.390;2022-12-18T19:25:24;96279.75;;;-2.15;99.02
46638;BME280;32365;46.938;7.390;2022-12-18T19:27:54;96287.03;;;-2.01;97.61
46638;BME280;32365;46.938;7.390;2022-12-18T19:30:20;96286.91;;;-1.99;96.95
46638;BME280;32365;46.938;7.390;2022-12-18T19:32:47;96290.25;;;-1.99;97.23
46638;BME280;32365;46.938;7.390;2022-12-18T19:35:13;96283.66;;;-2.11;97.20
46638;BME280;32365;46.938;7.390;2022-12-18T19:37:40;96278.56;;;-2.11;97.52
46638;BME280;32365;46.938;7.390;2022-12-18T19:40:07;96276.88;;;-2.01;97.34
46638;BME280;32365;46.938;7.390;2022-12-18T19:42:33;96275.28;;;-2.02;97.41
46638;BME280;32365;46.938;7.390;2022-12-18T19:45:01;96288.34;;;-2.07;97.20
46638;BME280;32365;46.938;7.390;2022-12-18T19:47:30;96287.19;;;-1.93;97.11
46638;BME280;32365;46.938;7.390;2022-12-18T19:49:57;96283.00;;;-2.04;96.86
46638;BME280;32365;46.938;7.390;2022-12-18T19:52:23;96278.09;;;-1.95;96.47
46638;BME280;32365;46.938;7.390;2022-12-18T19:54:49;96276.13;;;-1.92;95.74
46638;BME280;32365;46.938;7.390;2022-12-18T19:57:16;96277.19;;;-1.94;96.46
46638;BME280;32365;46.938;7.390;2022-12-18T19:59:42;96266.59;;;-1.99;95.88
46638;BME280;32365;46.938;7.390;2022-12-18T20:02:11;96266.47;;;-1.98;95.81
46638;BME280;32365;46.938;7.390;2022-12-18T20:04:38;96269.03;;;-1.88;95.61
46638;BME280;32365;46.938;7.390;2022-12-18T20:07:04;96273.28;;;-1.98;95.58
46638;BME280;32365;46.938;7.390;2022-12-18T20:09:30;96269.28;;;-2.01;96.00
46638;BME280;32365;46.938;7.390;2022-12-18T20:11:57;96260.28;;;-2.05;96.01
46638;BME280;32365;46.938;7.390;2022-12-18T20:14:23;96265.59;;;-2.08;96.74
46638;BME280;32365;46.938;7.390;2022-12-18T20:16:50;96266.66;;;-1.90;95.83
46638;BME280;32365;46.938;7.390;2022-12-18T20:19:18;96267.69;;;-1.92;96.15
46638;BME280;32365;46.938;7.390;2022-12-18T20:21:44;96263.44;;;-1.92;95.87
46638;BME280;32365;46.938;7.390;2022-12-18T20:24:11;96268.75;;;-1.95;96.26
46638;BME280;32365;46.938;7.390;2022-12-18T20:26:37;96271.81;;;-1.91;96.81
46638;BME280;32365;46.938;7.390;2022-12-18T20:29:04;96258.84;;;-1.98;96.48
46638;BME280;32365;46.938;7.390;2022-12-18T20:31:31;96254.16;;;-2.03;97.04
46638;BME280;32365;46.938;7.390;2022-12-18T20:33:57;96265.81;;;-1.90;97.21
46638;BME280;32365;46.938;7.390;2022-12-18T20:36:25;96272.81;;;-1.82;97.03
46638;BME280;32365;46.938;7.390;2022-12-18T20:38:51;96265.44;;;-1.86;97.06
46638;BME280;32365;46.938;7.390;2022-12-18T20:41:19;96271.03;;;-1.92;97.12
46638;BME280;32365;46.938;7.390;2022-12-18T20:43:46;96269.72;;;-1.86;96.92
46638;BME280;32365;46.938;7.390;2022-12-18T20:46:13;96262.06;;;-1.65;95.71
46638;BME280;32365;46.938;7.390;2022-12-18T20:48:40;96254.03;;;-1.60;94.05
46638;BME280;32365;46.938;7.390;2022-12-18T20:51:07;96272.03;;;-1.73;94.98
46638;BME280;32365;46.938;7.390;2022-12-18T20:53:36;96266.94;;;-1.83;96.03
46638;BME280;32365;46.938;7.390;2022-12-18T20:56:05;96270.78;;;-1.89;96.52
46638;BME280;32365;46.938;7.390;2022-12-18T20:58:31;96269.75;;;-2.07;97.35
46638;BME280;32365;46.938;7.390;2022-12-18T21:01:01;96267.22;;;-2.07;98.19
46638;BME280;32365;46.938;7.390;2022-12-18T21:03:27;96273.03;;;-1.95;98.11
46638;BME280;32365;46.938;7.390;2022-12-18T21:05:54;96270.50;;;-1.95;98.17
46638;BME280;32365;46.938;7.390;2022-12-18T21:08:21;96257.06;;;-2.07;98.42
46638;BME280;32365;46.938;7.390;2022-12-18T21:10:48;96258.56;;;-2.05;98.50
46638;BME280;32365;46.938;7.390;2022-12-18T21:13:15;96275.03;;;-1.99;98.26
46638;BME280;32365;46.938;7.390;2022-12-18T21:15:41;96265.91;;;-2.02;98.53
46638;BME280;32365;46.938;7.390;2022-12-18T21:18:07;96247.50;;;-1.94;98.56
46638;BME280;32365;46.938;7.390;2022-12-18T21:20:34;96244.97;;;-1.94;98.17
